createdAt,value
2018-05-07T00:00:01.506Z,2.10
2018-05-07T00:02:29.642Z,2.23
2018-05-07T00:04:57.806Z,2.17
2018-05-07T00:07:25.941Z,1.87
2018-05-07T00:09:54.094Z,1.77
2018-05-07T00:12:22.199Z,3.00
2018-05-07T00:14:50.311Z,2.20
2018-05-07T00:17:19.189Z,1.97
2018-05-07T00:19:47.347Z,1.90
2018-05-07T00:22:15.473Z,1.80
2018-05-07T00:24:43.581Z,2.03
2018-05-07T00:27:11.686Z,2.00
2018-05-07T00:29:39.861Z,2.13
2018-05-07T00:32:07.959Z,2.20
2018-05-07T00:34:36.131Z,1.90
2018-05-07T00:37:04.328Z,2.37
2018-05-07T00:39:32.466Z,1.87
2018-05-07T00:42:00.628Z,2.00
2018-05-07T00:44:28.730Z,2.00
2018-05-07T00:46:57.446Z,2.00
2018-05-07T00:49:25.566Z,2.97
2018-05-07T00:51:54.714Z,2.30
2018-05-07T00:54:23.618Z,2.07
2018-05-07T00:56:51.718Z,1.97
2018-05-07T00:59:19.850Z,2.33
2018-05-07T01:01:47.926Z,2.10
2018-05-07T01:04:16.076Z,1.83
2018-05-07T01:06:44.238Z,1.93
2018-05-07T01:09:13.164Z,1.80
2018-05-07T01:11:41.285Z,2.30
2018-05-07T01:14:09.420Z,1.80
2018-05-07T01:16:37.565Z,1.70
2018-05-07T01:19:05.650Z,1.70
2018-05-07T01:21:33.790Z,1.90
2018-05-07T01:24:01.971Z,1.90
2018-05-07T01:26:30.163Z,1.83
2018-05-07T01:28:58.300Z,2.00
2018-05-07T01:31:26.409Z,2.00
2018-05-07T01:33:54.523Z,2.13
2018-05-07T01:36:22.635Z,2.13
2018-05-07T01:38:54.452Z,1.80
2018-05-07T01:41:22.603Z,2.03
2018-05-07T01:43:50.849Z,2.30
2018-05-07T01:46:18.975Z,1.97
2018-05-07T01:48:47.097Z,2.10
2018-05-07T01:51:15.816Z,1.97
2018-05-07T01:53:43.927Z,2.03
2018-05-07T01:56:12.050Z,2.37
2018-05-07T01:58:40.248Z,1.90
2018-05-07T02:01:08.367Z,2.10
2018-05-07T02:03:36.474Z,2.13
2018-05-07T02:06:04.868Z,1.80
2018-05-07T02:08:33.304Z,2.13
2018-05-07T02:11:01.420Z,2.07
2018-05-07T02:13:29.578Z,2.00
2018-05-07T02:15:57.732Z,2.27
2018-05-07T02:18:26.610Z,2.10
2018-05-07T02:20:54.746Z,2.00
2018-05-07T02:23:23.766Z,2.30
2018-05-07T02:25:52.031Z,2.20
2018-05-07T02:28:20.271Z,2.00
2018-05-07T02:30:48.511Z,2.33
2018-05-07T02:33:16.765Z,2.10
2018-05-07T02:35:45.011Z,2.20
2018-05-07T02:38:13.245Z,2.33
2018-05-07T02:40:42.138Z,2.40
2018-05-07T02:43:11.029Z,2.10
2018-05-07T02:45:39.137Z,2.30
2018-05-07T02:48:07.239Z,2.17
2018-05-07T02:50:35.373Z,2.30
2018-05-07T02:53:03.485Z,2.80
2018-05-07T02:55:31.606Z,2.40
2018-05-07T02:57:59.692Z,2.30
2018-05-07T03:00:27.837Z,2.50
2018-05-07T03:02:55.963Z,2.70
2018-05-07T03:05:24.065Z,2.30
2018-05-07T03:07:52.175Z,2.40
2018-05-07T03:10:20.309Z,2.40
2018-05-07T03:12:48.407Z,2.50
2018-05-07T03:15:16.522Z,2.63
2018-05-07T03:17:44.639Z,2.37
2018-05-07T03:20:13.487Z,2.30
2018-05-07T03:22:41.585Z,2.30
2018-05-07T03:25:10.435Z,2.40
2018-05-07T03:27:38.538Z,2.10
2018-05-07T03:30:06.638Z,2.20
2018-05-07T03:32:34.738Z,2.30
2018-05-07T03:35:02.816Z,2.37
2018-05-07T03:37:31.585Z,2.40
2018-05-07T03:39:59.696Z,2.17
2018-05-07T03:42:27.819Z,2.40
2018-05-07T03:44:55.926Z,2.03
2018-05-07T03:47:24.021Z,2.50
2018-05-07T03:49:52.168Z,2.40
2018-05-07T03:52:20.257Z,2.60
2018-05-07T03:54:48.360Z,2.57
2018-05-07T03:57:16.455Z,2.67
2018-05-07T03:59:45.170Z,2.37
2018-05-07T04:02:13.281Z,2.57
2018-05-07T04:04:41.381Z,2.60
2018-05-07T04:07:09.479Z,2.83
2018-05-07T04:09:38.441Z,2.40
2018-05-07T04:12:07.327Z,2.43
2018-05-07T04:14:35.439Z,2.10
2018-05-07T04:17:21.210Z,2.47
2018-05-07T04:20:07.712Z,2.23
2018-05-07T04:22:53.435Z,2.47
2018-05-07T04:25:21.571Z,2.43
2018-05-07T04:27:49.775Z,2.40
2018-05-07T04:30:17.863Z,2.40
2018-05-07T04:32:45.971Z,2.50
2018-05-07T04:35:15.604Z,2.53
2018-05-07T04:37:43.913Z,2.37
2018-05-07T04:40:12.023Z,2.40
2018-05-07T04:42:40.262Z,2.40
2018-05-07T04:45:08.512Z,2.60
2018-05-07T04:47:36.701Z,2.83
2018-05-07T04:50:05.669Z,2.80
2018-05-07T04:52:33.774Z,2.43
2018-05-07T04:55:01.883Z,2.77
2018-05-07T04:57:30.927Z,3.83
2018-05-07T04:59:59.057Z,3.50
2018-05-07T05:02:27.942Z,3.03
2018-05-07T05:04:56.837Z,3.20
2018-05-07T05:07:24.966Z,3.33
2018-05-07T05:09:53.097Z,3.87
2018-05-07T05:12:21.205Z,3.57
2018-05-07T05:14:49.394Z,4.10
2018-05-07T05:17:17.527Z,4.60
2018-05-07T05:19:45.619Z,4.33
2018-05-07T05:22:13.767Z,3.53
2018-05-07T05:24:41.885Z,3.67
2018-05-07T05:27:09.998Z,3.60
2018-05-07T05:29:38.166Z,3.13
2018-05-07T05:32:07.108Z,3.23
2018-05-07T05:34:35.201Z,6.63
2018-05-07T05:37:03.311Z,3.93
2018-05-07T05:39:31.413Z,3.83
2018-05-07T05:41:59.511Z,3.50
2018-05-07T05:44:27.631Z,3.00
2018-05-07T05:46:55.739Z,3.30
2018-05-07T05:49:23.873Z,2.97
2018-05-07T05:51:51.987Z,3.20
2018-05-07T05:54:20.115Z,3.30
2018-05-07T05:56:48.989Z,2.97
2018-05-07T05:59:17.082Z,3.37
2018-05-07T06:01:45.239Z,3.37
2018-05-07T06:04:13.330Z,3.37
2018-05-07T06:06:41.900Z,2.40
2018-05-07T06:09:09.982Z,2.80
2018-05-07T06:11:38.094Z,2.80
2018-05-07T06:14:06.216Z,2.20
2018-05-07T06:16:34.330Z,2.63
2018-05-07T06:19:02.439Z,2.30
2018-05-07T06:21:30.560Z,2.57
2018-05-07T06:23:58.660Z,2.40
2018-05-07T06:26:26.754Z,2.33
2018-05-07T06:28:54.904Z,2.23
2018-05-07T06:31:23.085Z,2.27
2018-05-07T06:33:51.373Z,2.53
2018-05-07T06:36:19.502Z,1.83
2018-05-07T06:38:47.618Z,2.13
2018-05-07T06:41:15.749Z,2.07
2018-05-07T06:43:43.895Z,2.00
2018-05-07T06:46:12.023Z,2.30
2018-05-07T06:48:40.123Z,2.20
2018-05-07T06:51:09.077Z,2.03
2018-05-07T06:53:37.260Z,1.90
2018-05-07T06:56:05.399Z,2.00
2018-05-07T06:58:33.507Z,2.20
2018-05-07T07:01:02.568Z,2.30
2018-05-07T07:03:30.683Z,1.60
2018-05-07T07:05:58.792Z,2.00
2018-05-07T07:08:26.952Z,1.80
2018-05-07T07:10:55.040Z,2.10
2018-05-07T07:13:23.164Z,2.13
2018-05-07T07:15:51.278Z,2.00
2018-05-07T07:18:19.376Z,1.87
2018-05-07T07:20:47.506Z,2.00
2018-05-07T07:23:15.618Z,2.00
2018-05-07T07:25:43.730Z,1.87
2018-05-07T07:28:12.038Z,1.80
2018-05-07T07:30:40.074Z,2.10
2018-05-07T07:33:08.262Z,1.87
2018-05-07T07:35:36.396Z,1.80
2018-05-07T07:38:04.502Z,2.30
2018-05-07T07:40:32.620Z,1.80
2018-05-07T07:43:01.527Z,1.90
2018-05-07T07:45:29.652Z,1.93
2018-05-07T07:47:57.796Z,2.30
2018-05-07T07:50:25.968Z,1.90
2018-05-07T07:52:54.714Z,2.13
2018-05-07T07:55:22.856Z,1.63
2018-05-07T07:57:50.974Z,2.30
2018-05-07T08:00:19.065Z,2.40
2018-05-07T08:02:47.178Z,2.00
2018-05-07T08:05:15.303Z,1.90
2018-05-07T08:07:43.433Z,2.40
2018-05-07T08:10:11.559Z,1.70
2018-05-07T08:12:39.661Z,2.00
2018-05-07T08:15:07.770Z,1.70
2018-05-07T08:17:35.872Z,1.80
2018-05-07T08:20:04.096Z,1.87
2018-05-07T08:22:32.245Z,1.90
2018-05-07T08:25:00.377Z,1.97
2018-05-07T08:27:28.499Z,1.63
2018-05-07T08:29:56.616Z,1.60
2018-05-07T08:32:25.559Z,1.87
2018-05-07T08:34:53.676Z,1.90
2018-05-07T08:37:22.758Z,1.70
2018-05-07T08:39:50.928Z,1.50
2018-05-07T08:42:19.050Z,1.87
2018-05-07T08:44:47.167Z,2.07
2018-05-07T08:47:15.994Z,2.07
2018-05-07T08:49:44.085Z,1.67
2018-05-07T08:52:12.251Z,1.70
2018-05-07T08:54:40.463Z,2.00
2018-05-07T08:57:08.701Z,1.73
2018-05-07T08:59:36.871Z,2.20
2018-05-07T09:02:04.988Z,1.90
2018-05-07T09:04:33.115Z,1.50
2018-05-07T09:07:01.306Z,1.60
2018-05-07T09:09:29.365Z,2.07
2018-05-07T09:11:58.156Z,1.70
2018-05-07T09:14:26.952Z,1.80
2018-05-07T09:16:55.056Z,1.80
2018-05-07T09:19:23.144Z,1.77
2018-05-07T09:21:52.039Z,1.77
2018-05-07T09:24:20.914Z,1.70
2018-05-07T09:26:49.028Z,1.57
2018-05-07T09:29:17.132Z,1.50
2018-05-07T09:31:45.242Z,1.77
2018-05-07T09:34:13.365Z,1.57
2018-05-07T09:36:41.618Z,1.90
2018-05-07T09:39:09.894Z,1.63
2018-05-07T09:41:38.126Z,1.90
2018-05-07T09:44:06.402Z,1.70
2018-05-07T09:46:34.639Z,1.70
2018-05-07T09:49:02.895Z,1.87
2018-05-07T09:51:31.750Z,2.00
2018-05-07T09:53:59.881Z,1.57
2018-05-07T09:56:27.985Z,1.80
2018-05-07T09:58:57.508Z,1.60
2018-05-07T10:01:25.629Z,1.77
2018-05-07T10:03:53.742Z,1.80
2018-05-07T10:06:22.618Z,1.50
2018-05-07T10:08:50.830Z,1.97
2018-05-07T10:11:19.152Z,1.90
2018-05-07T10:13:47.244Z,1.70
2018-05-07T10:16:15.377Z,1.87
2018-05-07T10:18:43.472Z,2.00
2018-05-07T10:21:11.568Z,1.50
2018-05-07T10:23:39.720Z,1.63
2018-05-07T10:26:07.781Z,1.53
2018-05-07T10:28:35.888Z,1.60
2018-05-07T10:31:04.082Z,1.70
2018-05-07T10:33:32.273Z,2.00
2018-05-07T10:36:00.380Z,1.87
2018-05-07T10:38:28.510Z,1.57
2018-05-07T10:40:57.248Z,1.50
2018-05-07T10:43:25.351Z,1.70
2018-05-07T10:45:53.462Z,1.70
2018-05-07T10:48:21.549Z,1.50
2018-05-07T10:50:49.677Z,2.37
2018-05-07T10:53:18.492Z,1.63
2018-05-07T10:55:46.633Z,1.83
2018-05-07T10:58:14.767Z,1.90
2018-05-07T11:00:43.085Z,1.53
2018-05-07T11:03:11.953Z,2.07
2018-05-07T11:05:40.075Z,1.73
2018-05-07T11:08:08.184Z,2.00
2018-05-07T11:10:36.295Z,1.40
2018-05-07T11:13:04.399Z,1.60
2018-05-07T11:15:32.554Z,1.83
2018-05-07T11:18:00.666Z,1.80
2018-05-07T11:20:28.772Z,1.87
2018-05-07T11:22:56.864Z,1.67
2018-05-07T11:25:24.950Z,1.67
2018-05-07T11:27:53.065Z,1.67
2018-05-07T11:30:21.168Z,1.47
2018-05-07T11:32:50.078Z,1.53
2018-05-07T11:35:18.191Z,1.43
2018-05-07T11:37:46.368Z,1.40
2018-05-07T11:40:14.487Z,1.70
2018-05-07T11:42:42.577Z,1.70
2018-05-07T11:45:10.768Z,1.70
2018-05-07T11:47:38.871Z,1.30
2018-05-07T11:50:06.990Z,1.63
2018-05-07T11:52:35.231Z,1.90
2018-05-07T11:55:03.440Z,1.60
2018-05-07T11:57:31.669Z,1.57
2018-05-07T11:59:59.785Z,1.70
2018-05-07T12:02:27.927Z,1.53
2018-05-07T12:04:56.037Z,1.70
2018-05-07T12:07:24.151Z,1.33
2018-05-07T12:09:52.261Z,1.37
2018-05-07T12:12:20.372Z,1.80
2018-05-07T12:14:48.514Z,1.80
2018-05-07T12:17:16.754Z,2.07
2018-05-07T12:19:44.958Z,1.50
2018-05-07T12:22:13.210Z,1.60
2018-05-07T12:24:45.405Z,1.40
2018-05-07T12:27:13.579Z,1.87
2018-05-07T12:29:42.408Z,1.53
2018-05-07T12:32:10.511Z,1.57
2018-05-07T12:34:38.622Z,1.87
2018-05-07T12:37:06.724Z,1.73
2018-05-07T12:39:34.852Z,1.87
2018-05-07T12:42:03.175Z,1.50
2018-05-07T12:44:31.307Z,1.87
2018-05-07T12:46:59.422Z,1.70
2018-05-07T12:49:28.008Z,1.87
2018-05-07T12:51:56.118Z,1.50
2018-05-07T12:54:24.229Z,1.80
2018-05-07T12:56:52.342Z,1.57
2018-05-07T12:59:20.497Z,1.63
2018-05-07T13:01:48.603Z,1.80
2018-05-07T13:04:16.699Z,1.70
2018-05-07T13:06:44.817Z,1.90
2018-05-07T13:09:12.921Z,1.67
2018-05-07T13:11:41.101Z,1.60
2018-05-07T13:14:09.316Z,1.80
2018-05-07T13:16:37.545Z,1.60
2018-05-07T13:19:05.785Z,1.60
2018-05-07T13:21:33.907Z,1.67
2018-05-07T13:24:02.638Z,1.70
2018-05-07T13:26:30.742Z,2.07
2018-05-07T13:28:58.850Z,1.80
2018-05-07T13:31:27.042Z,2.07
2018-05-07T13:33:55.334Z,1.93
2018-05-07T13:36:23.440Z,1.70
2018-05-07T13:38:51.587Z,1.83
2018-05-07T13:41:19.713Z,1.70
2018-05-07T13:43:47.813Z,1.60
2018-05-07T13:46:15.929Z,1.90
2018-05-07T13:48:44.035Z,1.73
2018-05-07T13:51:12.262Z,1.90
2018-05-07T13:53:40.313Z,1.70
2018-05-07T13:56:08.552Z,1.60
2018-05-07T13:58:36.810Z,1.90
2018-05-07T14:01:05.112Z,1.63
2018-05-07T14:03:33.235Z,1.53
2018-05-07T14:06:01.505Z,1.57
2018-05-07T14:08:29.875Z,1.63
2018-05-07T14:10:58.064Z,1.87
2018-05-07T14:13:26.269Z,1.60
2018-05-07T14:15:54.484Z,1.57
2018-05-07T14:18:22.730Z,1.67
2018-05-07T14:20:50.866Z,1.60
2018-05-07T14:23:19.021Z,2.00
2018-05-07T14:25:47.136Z,1.67
2018-05-07T14:28:16.002Z,1.80
2018-05-07T14:30:44.824Z,1.60
2018-05-07T14:33:13.350Z,1.73
2018-05-07T14:35:41.523Z,1.97
2018-05-07T14:38:09.677Z,1.87
2018-05-07T14:40:37.838Z,1.97
2018-05-07T14:43:05.931Z,1.70
2018-05-07T14:45:34.067Z,1.57
2018-05-07T14:48:02.179Z,1.63
2018-05-07T14:50:30.284Z,1.70
2018-05-07T14:52:58.413Z,1.83
2018-05-07T14:55:26.528Z,1.80
2018-05-07T14:57:55.075Z,1.80
2018-05-07T15:00:23.207Z,1.83
2018-05-07T15:02:51.358Z,1.80
2018-05-07T15:05:19.487Z,1.53
2018-05-07T15:07:47.588Z,2.07
2018-05-07T15:10:15.794Z,1.77
2018-05-07T15:12:43.881Z,1.87
2018-05-07T15:15:12.005Z,1.70
2018-05-07T15:17:40.113Z,1.90
2018-05-07T15:20:09.014Z,1.90
2018-05-07T15:22:37.181Z,1.43
2018-05-07T15:25:05.409Z,2.00
2018-05-07T15:27:33.539Z,1.80
2018-05-07T15:30:01.640Z,1.87
2018-05-07T15:32:29.764Z,1.80
2018-05-07T15:34:57.858Z,1.80
2018-05-07T15:37:26.004Z,1.70
2018-05-07T15:39:54.096Z,1.40
2018-05-07T15:42:22.224Z,1.60
2018-05-07T15:44:50.322Z,1.90
2018-05-07T15:47:18.491Z,2.03
2018-05-07T15:49:46.592Z,1.70
2018-05-07T15:52:14.692Z,1.93
2018-05-07T15:54:42.818Z,1.73
2018-05-07T15:57:10.911Z,1.67
2018-05-07T15:59:39.030Z,2.23
2018-05-07T16:02:07.291Z,1.73
2018-05-07T16:04:35.491Z,1.90
2018-05-07T16:07:04.461Z,1.60
2018-05-07T16:09:35.774Z,1.80
2018-05-07T16:12:03.890Z,1.77
2018-05-07T16:14:32.000Z,2.07
2018-05-07T16:17:00.109Z,1.87
2018-05-07T16:19:28.205Z,1.73
2018-05-07T16:21:56.352Z,1.63
2018-05-07T16:24:24.436Z,1.83
2018-05-07T16:26:52.647Z,1.90
2018-05-07T16:29:20.894Z,2.10
2018-05-07T16:31:49.076Z,1.87
2018-05-07T16:34:17.333Z,2.30
2018-05-07T16:36:45.492Z,1.67
2018-05-07T16:39:13.590Z,1.63
2018-05-07T16:41:41.747Z,1.83
2018-05-07T16:44:10.563Z,1.77
2018-05-07T16:46:38.675Z,2.00
2018-05-07T16:49:06.921Z,1.83
2018-05-07T16:51:35.012Z,1.70
2018-05-07T16:54:05.431Z,2.10
2018-05-07T16:56:35.867Z,2.00
2018-05-07T16:59:04.595Z,1.80
2018-05-07T17:01:38.029Z,1.97
2018-05-07T17:04:06.198Z,1.60
2018-05-07T17:06:34.317Z,1.73
2018-05-07T17:09:02.417Z,2.13
2018-05-07T17:11:30.601Z,1.80
2018-05-07T17:13:58.706Z,1.80
2018-05-07T17:16:26.840Z,1.93
2018-05-07T17:18:56.159Z,2.00
2018-05-07T17:21:24.912Z,1.90
2018-05-07T17:23:53.077Z,1.93
2018-05-07T17:26:21.287Z,1.70
2018-05-07T17:28:49.616Z,1.80
2018-05-07T17:31:17.752Z,1.70
2018-05-07T17:33:45.979Z,1.73
2018-05-07T17:36:14.056Z,2.10
2018-05-07T17:38:42.181Z,1.83
2018-05-07T17:41:10.287Z,2.13
2018-05-07T17:43:38.396Z,1.70
2018-05-07T17:46:24.210Z,1.90
2018-05-07T17:48:57.039Z,2.53
2018-05-07T17:51:25.175Z,1.83
2018-05-07T17:53:53.408Z,1.80
2018-05-07T17:56:21.710Z,4.80
2018-05-07T17:58:49.830Z,2.33
2018-05-07T18:01:17.977Z,2.70
2018-05-07T18:03:46.115Z,2.03
2018-05-07T18:06:14.204Z,1.93
2018-05-07T18:08:42.344Z,2.07
2018-05-07T18:11:10.449Z,2.00
2018-05-07T18:13:39.302Z,3.20
2018-05-07T18:16:07.400Z,2.00
2018-05-07T18:18:36.240Z,2.00
2018-05-07T18:21:05.104Z,1.80
2018-05-07T18:23:33.242Z,1.90
2018-05-07T18:26:01.338Z,2.10
2018-05-07T18:28:29.463Z,1.60
2018-05-07T18:30:57.576Z,1.80
2018-05-07T18:33:25.692Z,2.00
2018-05-07T18:35:53.815Z,1.83
2018-05-07T18:38:21.919Z,1.90
2018-05-07T18:40:50.143Z,1.70
2018-05-07T18:43:18.241Z,1.80
2018-05-07T18:45:46.391Z,1.97
2018-05-07T18:48:14.503Z,1.83
2018-05-07T18:50:43.134Z,1.97
2018-05-07T18:53:12.012Z,2.23
2018-05-07T18:55:40.767Z,2.03
2018-05-07T18:58:08.921Z,1.80
2018-05-07T19:00:37.092Z,1.70
2018-05-07T19:03:05.243Z,2.67
2018-05-07T19:05:33.424Z,3.63
2018-05-07T19:08:01.525Z,2.70
2018-05-07T19:10:30.116Z,2.23
2018-05-07T19:12:58.296Z,2.13
2018-05-07T19:15:30.744Z,2.20
2018-05-07T19:17:58.908Z,2.00
2018-05-07T19:20:27.038Z,1.90
2018-05-07T19:22:55.992Z,2.13
2018-05-07T19:25:24.210Z,2.00
2018-05-07T19:27:53.021Z,2.20
2018-05-07T19:30:21.174Z,2.30
2018-05-07T19:32:49.281Z,2.30
2018-05-07T19:35:17.477Z,2.00
2018-05-07T19:37:45.896Z,2.20
2018-05-07T19:40:14.501Z,2.00
2018-05-07T19:42:43.226Z,2.20
2018-05-07T19:47:59.887Z,2.10
2018-05-07T19:50:29.563Z,1.97
2018-05-07T19:53:02.358Z,2.00
2018-05-07T19:55:32.274Z,2.07
2018-05-07T19:58:02.194Z,2.20
2018-05-07T20:00:30.352Z,1.97
2018-05-07T20:03:03.449Z,2.20
2018-05-07T20:05:36.886Z,1.90
2018-05-07T20:08:05.003Z,2.37
2018-05-07T20:10:33.152Z,2.00
2018-05-07T20:13:02.471Z,1.77
2018-05-07T20:15:30.576Z,1.90
2018-05-07T20:17:58.735Z,2.30
2018-05-07T20:20:30.791Z,2.30
2018-05-07T20:22:58.957Z,1.90
2018-05-07T20:25:27.141Z,2.27
2018-05-07T20:27:59.491Z,2.13
2018-05-07T20:30:27.796Z,2.07
2018-05-07T20:32:56.619Z,2.50
2018-05-07T20:35:25.412Z,2.37
2018-05-07T20:37:54.200Z,2.10
2018-05-07T20:40:22.355Z,2.60
2018-05-07T20:42:50.478Z,2.10
2018-05-07T20:45:18.582Z,2.77
2018-05-07T20:47:46.781Z,2.50
2018-05-07T20:50:14.820Z,2.63
2018-05-07T20:52:42.964Z,2.60
2018-05-07T20:55:11.172Z,2.40
2018-05-07T20:57:39.495Z,2.40
2018-05-07T21:00:07.616Z,2.50
2018-05-07T21:02:35.879Z,2.60
2018-05-07T21:05:04.069Z,2.37
2018-05-07T21:07:32.348Z,2.60
2018-05-07T21:10:00.526Z,2.37
2018-05-07T21:12:28.845Z,2.90
2018-05-07T21:14:56.995Z,2.70
2018-05-07T21:17:25.108Z,2.50
2018-05-07T21:19:53.224Z,2.73
2018-05-07T21:22:21.357Z,2.90
2018-05-07T21:24:49.490Z,2.60
2018-05-07T21:27:19.137Z,2.80
2018-05-07T21:42:37.287Z,2.37
2018-05-07T21:45:05.415Z,2.77
2018-05-07T21:47:33.552Z,2.80
2018-05-07T21:50:01.737Z,2.90
2018-05-07T21:52:29.900Z,3.00
2018-05-07T21:54:58.549Z,3.10
2018-05-07T21:57:27.293Z,3.03
2018-05-07T21:59:55.411Z,2.90
2018-05-07T22:02:23.529Z,3.17
2018-05-07T22:17:46.740Z,2.83
2018-05-07T22:20:14.924Z,3.33
2018-05-07T22:22:58.006Z,2.90
2018-05-07T22:25:29.997Z,2.93
2018-05-07T22:27:58.812Z,2.83
2018-05-07T22:30:26.905Z,3.00
2018-05-07T22:32:55.068Z,2.90
2018-05-07T22:35:23.148Z,2.93
2018-05-07T22:37:52.134Z,3.30
2018-05-07T22:40:20.360Z,3.33
2018-05-07T22:42:49.523Z,3.37
2018-05-07T22:45:17.640Z,3.27
2018-05-07T22:47:45.762Z,3.40
2018-05-07T22:50:13.876Z,3.30
2018-05-07T22:55:52.824Z,3.57
2018-05-07T22:58:21.084Z,3.33
2018-05-07T23:00:49.216Z,2.97
2018-05-07T23:03:17.323Z,3.03
2018-05-07T23:05:45.453Z,3.00
2018-05-07T23:08:13.576Z,3.13
2018-05-07T23:10:41.706Z,3.17
2018-05-07T23:13:10.593Z,2.93
2018-05-07T23:15:39.748Z,3.30
2018-05-07T23:18:07.883Z,3.37
2018-05-07T23:20:36.022Z,3.50
2018-05-07T23:23:05.542Z,3.27
2018-05-07T23:25:33.634Z,3.27
2018-05-07T23:28:01.812Z,3.50
2018-05-07T23:30:29.958Z,3.23
2018-05-07T23:32:58.040Z,3.43
2018-05-07T23:35:26.940Z,3.90
2018-05-07T23:37:55.076Z,4.10
2018-05-07T23:40:23.236Z,3.50
2018-05-07T23:42:51.353Z,3.60
2018-05-07T23:45:19.465Z,3.07
2018-05-07T23:47:47.650Z,2.77
2018-05-07T23:50:16.375Z,2.87
2018-05-07T23:52:44.560Z,3.30
2018-05-07T23:55:12.889Z,2.83
2018-05-07T23:57:41.059Z,3.03
